createdAt,value
2022-12-25T00:02:03.022Z,97420.11
2022-12-25T00:04:30.911Z,97421.00
2022-12-25T00:06:59.713Z,97415.80
2022-12-25T00:09:27.680Z,97418.31
2022-12-25T00:11:56.204Z,97418.48
2022-12-25T00:14:24.074Z,97416.33
2022-12-25T00:16:51.939Z,97420.59
2022-12-25T00:19:19.732Z,97427.50
2022-12-25T00:21:47.614Z,97433.85
2022-12-25T00:24:15.538Z,97440.48
2022-12-25T00:26:43.383Z,97443.29
2022-12-25T00:29:12.935Z,97441.70
2022-12-25T00:31:40.981Z,97445.95
2022-12-25T00:34:08.883Z,97449.06
2022-12-25T00:36:41.667Z,97446.41
2022-12-25T00:39:10.504Z,97444.95
2022-12-25T00:41:57.195Z,97440.70
2022-12-25T00:44:25.042Z,97441.96
2022-12-25T00:46:53.123Z,97446.63
2022-12-25T00:49:23.767Z,97443.14
2022-12-25T00:51:51.893Z,97451.52
2022-12-25T00:54:20.789Z,97456.05
2022-12-25T00:56:48.999Z,97457.77
2022-12-25T00:59:17.031Z,97460.88
2022-12-25T01:01:45.054Z,97460.49
2022-12-25T01:04:13.189Z,97466.99
2022-12-25T01:06:41.004Z,97466.56
2022-12-25T01:09:28.172Z,97464.46
2022-12-25T01:11:56.070Z,97464.11
2022-12-25T01:14:23.891Z,97468.90
2022-12-25T01:16:51.932Z,97471.52
2022-12-25T01:19:19.915Z,97477.16
2022-12-25T01:21:47.840Z,97478.23
2022-12-25T01:24:15.679Z,97477.85
2022-12-25T01:26:43.601Z,97473.75
2022-12-25T01:29:11.434Z,97472.41
2022-12-25T01:31:39.304Z,97471.36
2022-12-25T01:34:07.394Z,97470.20
2022-12-25T01:36:35.296Z,97471.73
2022-12-25T01:39:04.190Z,97474.39
2022-12-25T01:41:31.984Z,97475.41
2022-12-25T01:44:07.715Z,97474.52
2022-12-25T01:46:36.111Z,97477.13
2022-12-25T01:49:10.064Z,97478.36
2022-12-25T01:51:40.249Z,97480.23
2022-12-25T01:54:33.503Z,97479.40
2022-12-25T01:57:04.878Z,97483.70
2022-12-25T01:59:33.073Z,97482.88
2022-12-25T02:02:01.382Z,97479.80
2022-12-25T02:04:41.353Z,97481.95
2022-12-25T02:07:14.896Z,97481.39
2022-12-25T02:09:44.469Z,97481.65
2022-12-25T02:12:22.241Z,97480.75
2022-12-25T02:14:55.381Z,97480.16
2022-12-25T02:17:31.263Z,97483.95
2022-12-25T02:20:14.389Z,97484.11
2022-12-25T02:23:15.046Z,97480.02
2022-12-25T02:26:04.480Z,97486.48
2022-12-25T02:28:57.889Z,97482.80
2022-12-25T02:31:53.998Z,97488.27
2022-12-25T02:34:36.991Z,97494.20
2022-12-25T02:37:12.935Z,97495.55
2022-12-25T02:40:02.299Z,97499.92
2022-12-25T02:43:19.177Z,97506.01
2022-12-25T02:46:11.542Z,97509.36
2022-12-25T02:49:04.768Z,97506.79
2022-12-25T02:51:55.565Z,97502.34
2022-12-25T02:54:50.127Z,97506.53
2022-12-25T02:57:39.258Z,97508.83
2022-12-25T03:00:27.975Z,97512.19
2022-12-25T03:03:19.342Z,97514.50
2022-12-25T03:06:06.563Z,97514.67
2022-12-25T03:08:40.186Z,97517.70
2022-12-25T03:11:30.239Z,97517.70
2022-12-25T03:14:23.836Z,97525.15
2022-12-25T03:16:55.928Z,97531.39
2022-12-25T03:19:47.841Z,97531.45
2022-12-25T03:22:42.760Z,97530.96
2022-12-25T03:25:29.530Z,97539.85
2022-12-25T03:27:59.835Z,97543.11
2022-12-25T03:30:56.119Z,97543.75
2022-12-25T03:34:06.716Z,97541.91
2022-12-25T03:37:15.851Z,97549.38
2022-12-25T03:39:55.760Z,97554.15
2022-12-25T03:42:44.405Z,97555.07
2022-12-25T03:45:46.691Z,97559.05
2022-12-25T03:48:35.929Z,97557.27
2022-12-25T03:51:28.936Z,97562.67
2022-12-25T03:54:21.048Z,97562.96
2022-12-25T03:57:08.809Z,97563.06
2022-12-25T03:59:55.153Z,97562.34
2022-12-25T04:02:41.836Z,97558.35
2022-12-25T04:05:28.222Z,97555.72
2022-12-25T04:08:14.689Z,97560.73
2022-12-25T04:11:01.204Z,97562.14
2022-12-25T04:13:47.523Z,97562.77
2022-12-25T04:16:34.086Z,97563.73
2022-12-25T04:19:20.596Z,97566.23
2022-12-25T04:22:07.145Z,97571.58
2022-12-25T04:24:53.748Z,97578.40
2022-12-25T04:27:40.296Z,97583.91
2022-12-25T04:30:27.833Z,97585.88
2022-12-25T04:33:17.782Z,97587.30
2022-12-25T04:36:07.580Z,97594.48
2022-12-25T04:38:36.352Z,97590.03
2022-12-25T04:41:05.376Z,97593.23
2022-12-25T04:43:33.216Z,97598.90
2022-12-25T04:46:02.445Z,97601.79
2022-12-25T04:48:33.844Z,97605.39
2022-12-25T04:51:22.543Z,97609.46
2022-12-25T04:53:51.446Z,97611.80
2022-12-25T04:56:20.910Z,97612.32
2022-12-25T04:58:49.405Z,97612.70
2022-12-25T05:01:17.444Z,97617.70
2022-12-25T05:03:45.697Z,97626.13
2022-12-25T05:06:13.676Z,97625.73
2022-12-25T05:08:41.562Z,97628.09
2022-12-25T05:11:12.659Z,97628.29
2022-12-25T05:13:41.402Z,97631.75
2022-12-25T05:16:13.912Z,97634.84
2022-12-25T05:18:42.271Z,97635.64
2022-12-25T05:21:12.099Z,97629.40
2022-12-25T05:23:48.516Z,97626.96
2022-12-25T05:26:19.785Z,97625.40
2022-12-25T05:28:48.135Z,97629.31
2022-12-25T05:31:16.656Z,97629.17
2022-12-25T05:33:44.512Z,97628.52
2022-12-25T05:36:13.032Z,97634.11
2022-12-25T05:38:40.855Z,97636.52
2022-12-25T05:41:08.708Z,97642.63
2022-12-25T05:43:36.747Z,97644.94
2022-12-25T05:46:10.414Z,97647.18
2022-12-25T05:48:38.950Z,97649.29
2022-12-25T05:51:10.723Z,97650.11
2022-12-25T05:53:38.972Z,97652.73
2022-12-25T05:56:08.025Z,97658.14
2022-12-25T05:58:40.498Z,97662.12
2022-12-25T06:01:23.184Z,97663.69
2022-12-25T06:03:51.694Z,97664.27
2022-12-25T06:06:19.648Z,97664.73
2022-12-25T06:08:47.511Z,97669.64
2022-12-25T06:11:15.868Z,97671.46
2022-12-25T06:13:43.713Z,97671.68
2022-12-25T06:16:12.587Z,97677.81
2022-12-25T06:18:44.168Z,97678.09
2022-12-25T06:21:14.129Z,97675.18
2022-12-25T06:23:42.816Z,97679.26
2022-12-25T06:26:13.450Z,97685.12
2022-12-25T06:28:41.392Z,97686.04
2022-12-25T06:31:17.846Z,97694.25
2022-12-25T06:33:46.714Z,97695.97
2022-12-25T06:36:17.832Z,97696.06
2022-12-25T06:38:46.574Z,97700.35
2022-12-25T06:41:17.535Z,97704.07
2022-12-25T06:43:55.643Z,97709.96
2022-12-25T06:46:25.911Z,97710.14
2022-12-25T06:48:55.786Z,97716.04
2022-12-25T06:51:26.115Z,97720.36
2022-12-25T06:53:59.854Z,97729.58
2022-12-25T06:56:28.327Z,97734.69
2022-12-25T06:59:03.276Z,97731.56
2022-12-25T07:01:35.730Z,97732.46
2022-12-25T07:04:11.607Z,97735.67
2022-12-25T07:06:39.835Z,97737.11
2022-12-25T07:09:07.645Z,97742.29
2022-12-25T07:11:36.340Z,97745.98
2022-12-25T07:14:04.286Z,97752.45
2022-12-25T07:16:32.531Z,97757.13
2022-12-25T07:19:01.616Z,97760.38
2022-12-25T07:21:29.515Z,97757.35
2022-12-25T07:23:57.426Z,97757.06
2022-12-25T07:26:25.269Z,97765.34
2022-12-25T07:28:54.985Z,97767.59
2022-12-25T07:31:22.832Z,97768.25
2022-12-25T07:33:56.943Z,97775.50
2022-12-25T07:36:24.774Z,97779.20
2022-12-25T07:38:52.640Z,97785.87
2022-12-25T07:41:20.482Z,97782.67
2022-12-25T07:43:53.011Z,97780.53
2022-12-25T07:46:23.294Z,97781.30
2022-12-25T07:48:51.830Z,97786.08
2022-12-25T07:51:19.760Z,97780.27
2022-12-25T07:53:47.632Z,97790.20
2022-12-25T07:56:19.152Z,97802.55
2022-12-25T07:58:48.747Z,97806.63
2022-12-25T08:01:21.912Z,97808.70
2022-12-25T08:03:52.265Z,97819.05
2022-12-25T08:06:21.848Z,97826.28
2022-12-25T08:08:49.779Z,97833.77
2022-12-25T08:11:17.751Z,97839.95
2022-12-25T08:13:45.715Z,97839.65
2022-12-25T08:16:13.925Z,97842.42
2022-12-25T08:18:43.142Z,97847.48
2022-12-25T08:21:14.721Z,97852.16
2022-12-25T08:23:44.798Z,97857.17
2022-12-25T08:26:15.738Z,97863.98
2022-12-25T08:28:43.628Z,97865.48
2022-12-25T08:31:17.145Z,97862.56
2022-12-25T08:33:45.535Z,97868.85
2022-12-25T08:36:14.016Z,97872.60
2022-12-25T08:38:42.595Z,97876.02
2022-12-25T08:41:11.302Z,97872.13
2022-12-25T08:43:39.453Z,97870.53
2022-12-25T08:46:08.836Z,97864.05
2022-12-25T08:48:37.625Z,97859.92
2022-12-25T08:51:11.843Z,97855.13
2022-12-25T08:53:39.753Z,97860.02
2022-12-25T08:56:07.933Z,97864.95
2022-12-25T08:58:36.244Z,97866.49
2022-12-25T09:01:05.450Z,97863.67
2022-12-25T09:03:34.315Z,97863.98
2022-12-25T09:06:04.980Z,97867.05
2022-12-25T09:08:33.311Z,97864.56
2022-12-25T09:11:06.106Z,97862.37
2022-12-25T09:13:34.859Z,97858.52
2022-12-25T09:16:07.587Z,97860.99
2022-12-25T09:18:36.050Z,97865.40
2022-12-25T09:21:06.805Z,97871.30
2022-12-25T09:23:34.956Z,97876.25
2022-12-25T09:26:05.550Z,97878.98
2022-12-25T09:28:33.854Z,97881.26
2022-12-25T09:31:03.017Z,97883.06
2022-12-25T09:33:31.189Z,97885.56
2022-12-25T09:36:01.976Z,97885.26
2022-12-25T09:38:30.482Z,97875.16
2022-12-25T09:41:19.315Z,97871.92
2022-12-25T09:43:55.115Z,97873.11
2022-12-25T09:46:33.029Z,97884.66
2022-12-25T09:49:16.319Z,97886.56
2022-12-25T09:51:46.660Z,97886.41
2022-12-25T09:54:22.404Z,97883.95
2022-12-25T09:56:50.454Z,97887.36
2022-12-25T09:59:26.024Z,97886.74
2022-12-25T10:02:10.349Z,97885.60
2022-12-25T10:05:06.542Z,97888.14
2022-12-25T10:07:47.955Z,97891.73
2022-12-25T10:10:27.806Z,97891.38
2022-12-25T10:13:10.824Z,97895.70
2022-12-25T10:15:54.780Z,97892.79
2022-12-25T10:18:47.493Z,97889.61
2022-12-25T10:21:18.748Z,97883.27
2022-12-25T10:23:52.907Z,97883.77
2022-12-25T10:26:22.812Z,97881.48
2022-12-25T10:29:10.838Z,97877.19
2022-12-25T10:31:38.818Z,97879.70
2022-12-25T10:34:09.460Z,97881.38
2022-12-25T10:36:37.668Z,97883.98
2022-12-25T10:39:05.528Z,97884.55
2022-12-25T10:42:20.050Z,97885.29
2022-12-25T10:44:59.311Z,97886.12
2022-12-25T10:47:34.086Z,97880.85
2022-12-25T10:50:11.667Z,97880.66
2022-12-25T10:52:54.635Z,97881.39
2022-12-25T10:55:28.413Z,97887.81
2022-12-25T10:57:58.779Z,97895.16
2022-12-25T11:00:30.082Z,97889.59
2022-12-25T11:02:58.773Z,97885.52
2022-12-25T11:05:35.209Z,97881.86
2022-12-25T11:08:04.142Z,97876.98
2022-12-25T11:10:36.700Z,97871.71
2022-12-25T11:13:17.552Z,97865.16
2022-12-25T11:15:48.752Z,97860.60
2022-12-25T11:18:21.592Z,97859.73
2022-12-25T11:21:01.201Z,97861.05
2022-12-25T11:23:31.720Z,97857.64
2022-12-25T11:26:08.033Z,97863.56
2022-12-25T11:28:38.979Z,97866.10
2022-12-25T11:31:21.713Z,97871.59
2022-12-25T11:34:05.737Z,97871.33
2022-12-25T11:36:50.006Z,97871.77
2022-12-25T11:39:23.967Z,97875.96
2022-12-25T11:41:57.183Z,97871.62
2022-12-25T11:44:37.056Z,97878.70
2022-12-25T11:47:19.889Z,97880.42
2022-12-25T11:50:03.530Z,97875.41
2022-12-25T11:52:38.472Z,97877.27
2022-12-25T11:55:21.684Z,97875.21
2022-12-25T11:57:57.241Z,97877.96
2022-12-25T12:00:25.681Z,97878.98
2022-12-25T12:03:03.999Z,97876.88
2022-12-25T12:05:42.899Z,97879.35
2022-12-25T12:08:11.597Z,97886.72
2022-12-25T12:11:00.855Z,97883.75
2022-12-25T12:13:45.861Z,97882.20
2022-12-25T12:16:13.959Z,97880.16
2022-12-25T12:18:48.087Z,97879.83
2022-12-25T12:21:18.125Z,97884.38
2022-12-25T12:24:01.142Z,97887.95
2022-12-25T12:26:32.048Z,97893.70
2022-12-25T12:29:02.533Z,97894.29
2022-12-25T12:31:40.893Z,97901.52
2022-12-25T12:34:26.239Z,97907.13
2022-12-25T12:37:24.841Z,97911.04
2022-12-25T12:39:54.971Z,97921.30
2022-12-25T12:42:40.651Z,97928.31
2022-12-25T12:45:20.550Z,97940.02
2022-12-25T12:47:50.647Z,97939.63
2022-12-25T12:50:33.839Z,97935.88
2022-12-25T12:53:23.771Z,97933.59
2022-12-25T12:55:52.994Z,97937.41
2022-12-25T12:58:45.664Z,97943.52
2022-12-25T13:01:35.196Z,97943.81
2022-12-25T13:04:21.564Z,97940.44
2022-12-25T13:06:54.891Z,97942.95
2022-12-25T13:09:28.952Z,97939.89
2022-12-25T13:11:56.959Z,97942.72
2022-12-25T13:14:25.597Z,97945.41
2022-12-25T13:16:54.895Z,97945.21
2022-12-25T13:19:26.482Z,97941.77
2022-12-25T13:21:58.125Z,97942.19
2022-12-25T13:24:31.616Z,97943.53
2022-12-25T13:27:00.586Z,97947.70
2022-12-25T13:29:36.227Z,97951.35
2022-12-25T13:32:08.004Z,97950.98
2022-12-25T13:34:38.767Z,97949.58
2022-12-25T13:37:15.435Z,97957.08
2022-12-25T13:39:57.956Z,97956.75
2022-12-25T13:42:32.415Z,97956.91
2022-12-25T13:45:08.257Z,97970.18
2022-12-25T13:47:38.888Z,97979.83
2022-12-25T13:50:30.583Z,97969.27
2022-12-25T13:53:15.848Z,97971.31
2022-12-25T13:55:50.125Z,97975.61
2022-12-25T13:58:24.772Z,97969.85
2022-12-25T14:00:55.710Z,97971.61
2022-12-25T14:03:30.837Z,97975.30
2022-12-25T14:06:22.123Z,97972.08
2022-12-25T14:08:51.441Z,97977.14
2022-12-25T14:11:22.784Z,97973.05
2022-12-25T14:13:56.738Z,97973.14
2022-12-25T14:16:26.013Z,97978.90
2022-12-25T14:18:57.095Z,97976.33
2022-12-25T14:21:41.071Z,97979.30
2022-12-25T14:24:16.550Z,97988.00
2022-12-25T14:26:44.738Z,97987.02
2022-12-25T14:29:19.099Z,97987.81
2022-12-25T14:31:48.929Z,97993.48
2022-12-25T14:34:26.241Z,97995.61
2022-12-25T14:36:54.586Z,97995.80
2022-12-25T14:39:31.737Z,97992.85
2022-12-25T14:42:02.030Z,97992.16
2022-12-25T14:44:34.785Z,97994.91
2022-12-25T14:47:18.253Z,97997.26
2022-12-25T14:49:47.347Z,98002.38
2022-12-25T14:52:23.186Z,98008.77
2022-12-25T14:55:00.036Z,98008.23
2022-12-25T14:57:50.517Z,98009.88
2022-12-25T15:00:26.147Z,98013.27
2022-12-25T15:02:57.015Z,98009.38
2022-12-25T15:05:39.242Z,98008.20
2022-12-25T15:08:13.035Z,98010.33
2022-12-25T15:13:31.415Z,98017.79
2022-12-25T15:16:11.836Z,98020.59
2022-12-25T15:18:46.675Z,98023.03
2022-12-25T15:21:25.195Z,98027.95
2022-12-25T15:23:54.947Z,98030.27
2022-12-25T15:26:23.798Z,98035.08
2022-12-25T15:28:52.456Z,98042.02
2022-12-25T15:31:29.914Z,98044.55
2022-12-25T15:34:00.956Z,98047.69
2022-12-25T15:36:29.139Z,98051.32
2022-12-25T15:38:57.221Z,98052.48
2022-12-25T15:41:48.925Z,98054.23
2022-12-25T15:44:17.754Z,98055.99
2022-12-25T15:46:46.266Z,98056.95
2022-12-25T15:49:15.536Z,98058.05
2022-12-25T15:51:44.969Z,98058.27
2022-12-25T15:54:13.346Z,98057.50
2022-12-25T15:56:41.184Z,98055.15
2022-12-25T15:59:13.659Z,98056.21
2022-12-25T16:02:01.235Z,98062.64
2022-12-25T16:04:31.380Z,98072.07
2022-12-25T16:06:59.901Z,98079.00
2022-12-25T16:09:28.036Z,98083.44
2022-12-25T16:11:55.847Z,98085.27
2022-12-25T16:14:23.647Z,98092.73
2022-12-25T16:16:51.547Z,98086.70
2022-12-25T16:19:19.326Z,98083.52
2022-12-25T16:21:47.372Z,98080.69
2022-12-25T16:24:15.322Z,98073.74
2022-12-25T16:26:43.872Z,98075.27
2022-12-25T16:29:11.961Z,98075.60
2022-12-25T16:31:40.370Z,98075.27
2022-12-25T16:34:09.777Z,98072.66
2022-12-25T16:36:39.061Z,98065.89
2022-12-25T16:39:08.317Z,98062.21
2022-12-25T16:41:36.202Z,98060.63
2022-12-25T16:44:10.236Z,98058.81
2022-12-25T16:46:40.396Z,98057.00
2022-12-25T16:49:08.910Z,98057.58
2022-12-25T16:51:36.804Z,98055.53
2022-12-25T16:54:05.047Z,98053.30
2022-12-25T16:56:33.013Z,98051.33
2022-12-25T16:59:01.165Z,98053.81
2022-12-25T17:01:29.724Z,98052.88
2022-12-25T17:04:01.742Z,98050.98
2022-12-25T17:06:29.997Z,98044.23
2022-12-25T17:09:00.141Z,98047.46
2022-12-25T17:11:32.140Z,98060.06
2022-12-25T17:14:02.808Z,98060.31
2022-12-25T17:16:36.257Z,98052.43
2022-12-25T17:19:13.086Z,98033.92
2022-12-25T17:21:41.329Z,98026.94
2022-12-25T17:24:09.561Z,98025.17
2022-12-25T17:26:38.005Z,98030.98
2022-12-25T17:29:05.972Z,98028.22
2022-12-25T17:31:35.250Z,98023.73
2022-12-25T17:34:04.833Z,98029.40
2022-12-25T17:36:32.905Z,98037.71
2022-12-25T17:39:03.012Z,98040.86
2022-12-25T17:41:31.669Z,98043.05
2022-12-25T17:43:59.467Z,98054.08
2022-12-25T17:46:29.990Z,98061.69
2022-12-25T17:49:00.095Z,98063.89
2022-12-25T17:51:30.385Z,98065.95
2022-12-25T17:54:00.535Z,98064.80
2022-12-25T17:56:29.276Z,98068.29
2022-12-25T17:59:00.071Z,98071.52
2022-12-25T18:01:30.347Z,98070.06
2022-12-25T18:04:00.190Z,98072.11
2022-12-25T18:06:29.599Z,98068.95
2022-12-25T18:08:58.398Z,98064.17
2022-12-25T18:11:32.661Z,98060.74
2022-12-25T18:14:03.081Z,98054.84
2022-12-25T18:16:33.573Z,98051.58
2022-12-25T18:19:02.073Z,98050.95
2022-12-25T18:21:30.339Z,98052.92
2022-12-25T18:23:58.228Z,98059.46
2022-12-25T18:26:29.063Z,98059.46
2022-12-25T18:28:57.793Z,98050.86
2022-12-25T18:31:27.644Z,98041.35
2022-12-25T18:33:58.191Z,98034.98
2022-12-25T18:36:27.780Z,98039.20
2022-12-25T18:38:56.916Z,98045.54
2022-12-25T18:41:28.522Z,98050.40
2022-12-25T18:43:56.785Z,98049.77
2022-12-25T18:46:26.315Z,98052.11
2022-12-25T18:48:56.646Z,98051.55
2022-12-25T18:51:26.752Z,98053.83
2022-12-25T18:54:01.622Z,98056.70
2022-12-25T18:56:30.910Z,98061.39
2022-12-25T18:59:01.953Z,98065.34
2022-12-25T19:01:31.014Z,98070.32
2022-12-25T19:04:04.342Z,98073.38
2022-12-25T19:06:33.824Z,98073.40
2022-12-25T19:09:08.765Z,98074.54
2022-12-25T19:11:46.475Z,98075.28
2022-12-25T19:14:15.528Z,98079.09
2022-12-25T19:16:44.208Z,98082.45
2022-12-25T19:19:13.019Z,98080.79
2022-12-25T19:21:41.884Z,98082.11
2022-12-25T19:24:10.051Z,98080.88
2022-12-25T19:26:38.087Z,98078.54
2022-12-25T19:29:06.031Z,98081.29
2022-12-25T19:31:33.925Z,98074.70
2022-12-25T19:34:01.916Z,98069.55
2022-12-25T19:36:29.921Z,98069.75
2022-12-25T19:38:58.149Z,98067.41
2022-12-25T19:41:26.707Z,98067.14
2022-12-25T19:43:54.664Z,98067.33
2022-12-25T19:46:26.156Z,98078.27
2022-12-25T19:48:55.352Z,98080.09
2022-12-25T19:51:28.704Z,98074.86
2022-12-25T19:53:56.693Z,98071.65
2022-12-25T19:56:26.809Z,98070.27
2022-12-25T19:58:55.885Z,98070.89
2022-12-25T20:01:26.908Z,98067.15
2022-12-25T20:03:55.930Z,98068.14
2022-12-25T20:06:34.672Z,98067.10
2022-12-25T20:09:05.865Z,98062.52
2022-12-25T20:11:35.538Z,98057.37
2022-12-25T20:14:05.005Z,98055.27
2022-12-25T20:16:33.320Z,98053.10
2022-12-25T20:19:01.160Z,98053.52
2022-12-25T20:21:30.109Z,98055.56
2022-12-25T20:23:58.858Z,98053.69
2022-12-25T20:26:29.999Z,98062.23
2022-12-25T20:28:58.752Z,98068.55
2022-12-25T20:31:29.184Z,98073.09
2022-12-25T20:33:59.845Z,98074.81
2022-12-25T20:36:34.433Z,98081.53
2022-12-25T20:39:05.367Z,98085.15
2022-12-25T20:41:33.151Z,98088.35
2022-12-25T20:44:01.949Z,98087.36
2022-12-25T20:46:30.216Z,98083.13
2022-12-25T20:48:58.285Z,98082.73
2022-12-25T20:51:27.037Z,98082.31
2022-12-25T20:53:55.880Z,98083.08
2022-12-25T20:56:25.738Z,98086.02
2022-12-25T20:58:59.211Z,98094.46
2022-12-25T21:01:29.398Z,98098.89
2022-12-25T21:03:58.413Z,98105.20
2022-12-25T21:06:26.662Z,98111.08
2022-12-25T21:08:54.729Z,98113.95
2022-12-25T21:11:22.764Z,98115.39
2022-12-25T21:13:50.986Z,98116.15
2022-12-25T21:16:22.348Z,98112.42
2022-12-25T21:18:53.105Z,98107.27
2022-12-25T21:21:22.388Z,98105.98
2022-12-25T21:23:51.037Z,98113.33
2022-12-25T21:26:25.266Z,98122.11
2022-12-25T21:28:55.656Z,98129.80
2022-12-25T21:31:24.519Z,98131.85
2022-12-25T21:33:54.077Z,98131.36
2022-12-25T21:36:23.942Z,98126.73
2022-12-25T21:38:58.316Z,98128.79
2022-12-25T21:41:28.249Z,98139.18
2022-12-25T21:43:56.840Z,98142.77
2022-12-25T21:46:25.906Z,98140.20
2022-12-25T21:48:54.856Z,98132.85
2022-12-25T21:51:50.436Z,98133.85
2022-12-25T21:54:20.676Z,98137.58
2022-12-25T21:56:49.381Z,98132.59
2022-12-25T21:59:21.861Z,98131.28
2022-12-25T22:01:51.316Z,98137.48
2022-12-25T22:04:22.370Z,98141.30
2022-12-25T22:07:09.544Z,98143.13
2022-12-25T22:09:37.448Z,98145.67
2022-12-25T22:12:28.527Z,98139.79
2022-12-25T22:15:06.687Z,98134.53
2022-12-25T22:17:59.710Z,98122.67
2022-12-25T22:20:30.941Z,98114.28
2022-12-25T22:22:58.875Z,98112.84
2022-12-25T22:25:27.361Z,98111.54
2022-12-25T22:27:55.497Z,98115.42
2022-12-25T22:30:27.339Z,98106.98
2022-12-25T22:32:56.089Z,98102.84
2022-12-25T22:35:24.746Z,98100.00
2022-12-25T22:37:54.047Z,98101.54
2022-12-25T22:40:22.228Z,98105.39
2022-12-25T22:42:53.694Z,98111.11
2022-12-25T22:45:21.625Z,98109.02
2022-12-25T22:47:49.529Z,98111.15
2022-12-25T22:50:17.599Z,98114.56
2022-12-25T22:52:46.620Z,98117.02
2022-12-25T22:55:18.409Z,98122.49
2022-12-25T22:57:46.514Z,98123.71
2022-12-25T23:00:14.873Z,98120.63
2022-12-25T23:02:43.021Z,98119.72
2022-12-25T23:05:11.031Z,98116.80
2022-12-25T23:07:39.049Z,98107.84
2022-12-25T23:10:08.350Z,98102.95
2022-12-25T23:12:54.780Z,98105.52
2022-12-25T23:15:23.050Z,98109.20
2022-12-25T23:18:09.608Z,98110.85
2022-12-25T23:20:56.063Z,98114.52
2022-12-25T23:23:42.691Z,98117.95
2022-12-25T23:26:11.485Z,98118.70
2022-12-25T23:29:01.759Z,98122.63
2022-12-25T23:31:36.775Z,98111.73
2022-12-25T23:34:05.716Z,98114.64
2022-12-25T23:36:34.708Z,98116.44
2022-12-25T23:39:09.576Z,98111.91
2022-12-25T23:41:39.661Z,98118.52
2022-12-25T23:44:09.134Z,98120.27
2022-12-25T23:46:37.613Z,98122.59
2022-12-25T23:49:06.544Z,98116.17
2022-12-25T23:51:39.082Z,98110.98
2022-12-25T23:54:07.385Z,98122.36
2022-12-25T23:56:35.813Z,98127.36
2022-12-25T23:59:05.632Z,98128.04
